createdAt,value
2023-11-22T00:00:18.659Z,6.85
2023-11-22T00:02:45.671Z,5.40
2023-11-22T00:05:12.475Z,7.65
2023-11-22T00:07:39.396Z,6.00
2023-11-22T00:10:07.394Z,5.95
2023-11-22T00:12:37.458Z,5.43
2023-11-22T00:15:06.925Z,8.00
2023-11-22T00:17:37.912Z,5.10
2023-11-22T00:20:07.112Z,6.32
2023-11-22T00:22:34.069Z,6.53
2023-11-22T00:25:02.564Z,6.82
2023-11-22T00:27:30.947Z,5.97
2023-11-22T00:29:58.326Z,5.82
2023-11-22T00:32:26.853Z,7.43
2023-11-22T00:34:53.710Z,5.32
2023-11-22T00:37:20.830Z,6.75
2023-11-22T00:39:47.788Z,6.68
2023-11-22T00:42:14.762Z,4.45
2023-11-22T00:44:41.662Z,6.80
2023-11-22T00:47:08.510Z,7.78
2023-11-22T00:49:35.373Z,5.80
2023-11-22T00:52:03.912Z,6.55
2023-11-22T00:54:31.078Z,6.43
2023-11-22T00:56:57.763Z,4.82
2023-11-22T00:59:24.562Z,6.28
2023-11-22T01:01:51.562Z,5.47
2023-11-22T01:04:18.403Z,5.65
2023-11-22T01:06:45.181Z,6.40
2023-11-22T01:09:14.914Z,6.25
2023-11-22T01:11:41.929Z,8.45
2023-11-22T01:14:08.828Z,7.20
2023-11-22T01:16:37.958Z,6.75
2023-11-22T01:19:04.898Z,6.20
2023-11-22T01:21:32.352Z,6.30
2023-11-22T01:23:59.378Z,7.35
2023-11-22T01:26:26.514Z,7.05
2023-11-22T01:28:53.295Z,6.82
2023-11-22T01:31:22.392Z,5.40
2023-11-22T01:33:49.573Z,5.40
2023-11-22T01:36:18.960Z,7.25
2023-11-22T01:38:47.151Z,7.60
2023-11-22T01:41:14.633Z,5.78
2023-11-22T01:43:42.532Z,4.80
2023-11-22T01:46:11.670Z,7.80
2023-11-22T01:48:38.431Z,6.20
2023-11-22T01:51:06.264Z,5.80
2023-11-22T01:53:34.550Z,6.43
2023-11-22T01:56:02.491Z,6.50
2023-11-22T01:58:29.406Z,7.45
2023-11-22T02:00:56.148Z,6.85
2023-11-22T02:03:23.406Z,5.55
2023-11-22T02:05:51.853Z,3.92
2023-11-22T02:08:19.738Z,4.05
2023-11-22T02:10:50.340Z,6.32
2023-11-22T02:13:17.084Z,5.63
2023-11-22T02:15:43.895Z,4.80
2023-11-22T02:18:13.721Z,5.22
2023-11-22T02:20:42.356Z,6.45
2023-11-22T02:23:10.331Z,4.53
2023-11-22T02:25:37.100Z,8.48
2023-11-22T02:28:03.935Z,6.68
2023-11-22T02:30:30.995Z,6.38
2023-11-22T02:32:57.827Z,5.78
2023-11-22T02:35:24.738Z,5.63
2023-11-22T02:37:51.486Z,6.90
2023-11-22T02:40:21.580Z,6.10
2023-11-22T02:42:49.960Z,8.55
2023-11-22T02:45:24.029Z,8.02
2023-11-22T02:47:50.851Z,6.57
2023-11-22T02:50:18.087Z,7.80
2023-11-22T02:52:44.956Z,7.25
2023-11-22T02:55:11.889Z,8.18
2023-11-22T02:57:40.938Z,8.40
2023-11-22T03:00:15.595Z,10.63
2023-11-22T03:02:43.059Z,11.48
2023-11-22T03:05:10.752Z,8.07
2023-11-22T03:07:38.806Z,11.15
2023-11-22T03:10:08.490Z,8.18
2023-11-22T03:12:36.269Z,9.63
2023-11-22T03:15:03.267Z,8.07
2023-11-22T03:17:30.426Z,9.50
2023-11-22T03:20:01.653Z,9.85
2023-11-22T03:22:32.120Z,8.50
2023-11-22T03:24:59.682Z,11.32
2023-11-22T03:27:27.329Z,9.35
2023-11-22T03:29:54.304Z,10.07
2023-11-22T03:32:21.188Z,12.73
2023-11-22T03:34:47.927Z,7.78
2023-11-22T03:37:14.716Z,10.07
2023-11-22T03:39:41.410Z,10.05
2023-11-22T03:42:08.095Z,9.50
2023-11-22T03:44:34.825Z,12.35
2023-11-22T03:47:01.652Z,9.23
2023-11-22T03:49:28.368Z,13.65
2023-11-22T03:51:55.373Z,12.05
2023-11-22T03:54:22.110Z,10.25
2023-11-22T03:56:48.797Z,10.15
2023-11-22T03:59:15.570Z,10.85
2023-11-22T04:01:42.431Z,11.82
2023-11-22T04:04:11.062Z,10.52
2023-11-22T04:06:37.975Z,10.88
2023-11-22T04:09:05.584Z,13.90
2023-11-22T04:11:32.384Z,13.98
2023-11-22T04:13:59.133Z,13.35
2023-11-22T04:16:26.501Z,10.88
2023-11-22T04:18:53.628Z,11.65
2023-11-22T04:21:20.928Z,12.50
2023-11-22T04:23:49.168Z,15.15
2023-11-22T04:26:16.901Z,10.95
2023-11-22T04:28:43.779Z,11.85
2023-11-22T04:31:10.544Z,14.40
2023-11-22T04:33:37.523Z,14.05
2023-11-22T04:36:04.740Z,15.25
2023-11-22T04:38:31.523Z,12.60
2023-11-22T04:40:58.228Z,13.60
2023-11-22T04:43:24.917Z,15.13
2023-11-22T04:45:51.650Z,10.93
2023-11-22T04:48:18.589Z,15.52
2023-11-22T04:50:45.342Z,17.75
2023-11-22T04:53:12.545Z,9.95
2023-11-22T04:55:39.605Z,10.00
2023-11-22T04:58:06.374Z,11.82
2023-11-22T05:00:33.209Z,10.80
2023-11-22T05:03:00.016Z,11.05
2023-11-22T05:05:26.835Z,11.80
2023-11-22T05:07:53.691Z,11.70
2023-11-22T05:10:20.507Z,10.77
2023-11-22T05:12:47.261Z,15.60
2023-11-22T05:15:15.189Z,11.30
2023-11-22T05:17:41.992Z,11.75
2023-11-22T05:20:12.278Z,11.35
2023-11-22T05:22:39.122Z,13.65
2023-11-22T05:25:07.950Z,13.15
2023-11-22T05:27:34.798Z,13.63
2023-11-22T05:30:02.122Z,11.80
2023-11-22T05:32:30.384Z,14.13
2023-11-22T05:34:57.239Z,14.48
2023-11-22T05:37:24.997Z,18.52
2023-11-22T05:39:52.457Z,13.23
2023-11-22T05:42:19.406Z,18.50
2023-11-22T05:44:46.297Z,14.80
2023-11-22T05:47:14.468Z,14.10
2023-11-22T05:49:41.385Z,14.80
2023-11-22T05:52:08.192Z,17.77
2023-11-22T05:54:35.239Z,17.80
2023-11-22T05:57:02.029Z,19.25
2023-11-22T05:59:28.824Z,18.23
2023-11-22T06:01:55.542Z,17.10
2023-11-22T06:04:22.463Z,19.52
2023-11-22T06:06:49.244Z,16.63
2023-11-22T06:09:16.138Z,18.50
2023-11-22T06:11:43.157Z,19.52
2023-11-22T06:14:10.013Z,23.90
2023-11-22T06:16:36.864Z,23.67
2023-11-22T06:19:03.674Z,20.73
2023-11-22T06:21:30.882Z,19.05
2023-11-22T06:23:59.192Z,22.60
2023-11-22T06:26:26.594Z,18.60
2023-11-22T06:28:53.464Z,23.92
2023-11-22T06:31:20.298Z,22.95
2023-11-22T06:33:47.237Z,19.88
2023-11-22T06:36:15.734Z,21.20
2023-11-22T06:38:42.784Z,18.98
2023-11-22T06:41:09.798Z,20.35
2023-11-22T06:43:36.821Z,20.48
2023-11-22T06:46:06.832Z,22.92
2023-11-22T06:48:34.467Z,20.52
2023-11-22T06:51:01.994Z,18.58
2023-11-22T06:53:28.898Z,22.88
2023-11-22T06:55:55.841Z,33.15
2023-11-22T06:58:22.738Z,22.10
2023-11-22T07:00:49.820Z,20.73
2023-11-22T07:03:17.429Z,35.15
2023-11-22T07:05:45.017Z,24.33
2023-11-22T07:08:17.717Z,18.58
2023-11-22T07:10:46.050Z,18.85
2023-11-22T07:13:13.844Z,25.60
2023-11-22T07:15:41.883Z,25.88
2023-11-22T07:18:11.019Z,25.92
2023-11-22T07:20:38.236Z,20.30
2023-11-22T07:23:04.989Z,19.88
2023-11-22T07:25:32.696Z,18.58
2023-11-22T07:28:00.285Z,21.33
2023-11-22T07:30:31.245Z,25.65
2023-11-22T07:33:00.403Z,26.23
2023-11-22T07:35:29.506Z,17.50
2023-11-22T07:37:56.455Z,13.57
2023-11-22T07:40:23.540Z,12.98
2023-11-22T07:42:50.546Z,14.00
2023-11-22T07:45:29.467Z,12.02
2023-11-22T07:47:59.161Z,14.48
2023-11-22T07:50:28.989Z,13.23
2023-11-22T07:52:55.788Z,14.60
2023-11-22T07:55:23.141Z,11.13
2023-11-22T07:57:51.881Z,11.82
2023-11-22T08:00:20.444Z,12.95
2023-11-22T08:02:47.694Z,12.50
2023-11-22T08:05:16.365Z,12.77
2023-11-22T08:07:46.590Z,11.55
2023-11-22T08:10:20.536Z,15.38
2023-11-22T08:12:51.825Z,13.93
2023-11-22T08:15:21.364Z,44.65
2023-11-22T08:17:48.714Z,131.13
2023-11-22T08:20:19.038Z,143.52
2023-11-22T08:22:46.888Z,50.38
2023-11-22T08:25:14.012Z,15.82
2023-11-22T08:27:44.514Z,15.52
2023-11-22T08:30:16.271Z,12.75
2023-11-22T08:32:44.095Z,18.45
2023-11-22T08:35:11.683Z,13.82
2023-11-22T08:37:42.418Z,12.30
2023-11-22T08:40:12.453Z,21.38
2023-11-22T08:42:39.310Z,20.38
2023-11-22T08:45:06.569Z,20.23
2023-11-22T08:47:33.665Z,15.13
2023-11-22T08:50:00.443Z,11.18
2023-11-22T08:52:27.303Z,15.38
2023-11-22T08:54:54.090Z,10.70
2023-11-22T08:57:21.553Z,12.52
2023-11-22T08:59:48.816Z,10.65
2023-11-22T09:02:16.600Z,11.52
2023-11-22T09:04:43.287Z,15.65
2023-11-22T09:07:11.393Z,11.50
2023-11-22T09:09:38.198Z,13.88
2023-11-22T09:12:13.455Z,11.50
2023-11-22T09:14:42.326Z,13.87
2023-11-22T09:17:10.808Z,11.73
2023-11-22T09:19:38.285Z,10.32
2023-11-22T09:22:07.219Z,11.50
2023-11-22T09:24:34.645Z,9.15
2023-11-22T09:27:03.558Z,9.45
2023-11-22T09:29:30.284Z,14.60
2023-11-22T09:31:57.670Z,11.18
2023-11-22T09:34:25.527Z,11.60
2023-11-22T09:36:52.341Z,10.85
2023-11-22T09:39:22.448Z,10.70
2023-11-22T09:41:52.851Z,13.18
2023-11-22T09:44:19.812Z,10.23
2023-11-22T09:46:49.864Z,10.68
2023-11-22T09:49:25.180Z,9.85
2023-11-22T09:51:55.548Z,8.55
2023-11-22T09:54:30.228Z,8.88
2023-11-22T09:56:59.418Z,11.10
2023-11-22T09:59:26.175Z,10.55
2023-11-22T10:01:53.824Z,12.18
2023-11-22T10:04:21.515Z,8.00
2023-11-22T10:06:49.418Z,7.78
2023-11-22T10:09:18.551Z,11.52
2023-11-22T10:11:46.216Z,7.15
2023-11-22T10:14:25.204Z,10.65
2023-11-22T10:17:11.145Z,9.75
2023-11-22T10:19:37.981Z,10.52
2023-11-22T10:22:07.984Z,7.85
2023-11-22T10:24:35.983Z,8.68
2023-11-22T10:27:03.882Z,14.18
2023-11-22T10:29:30.776Z,9.23
2023-11-22T10:31:58.296Z,11.13
2023-11-22T10:34:26.311Z,7.68
2023-11-22T10:36:54.841Z,8.13
2023-11-22T10:39:22.699Z,6.80
2023-11-22T10:41:52.545Z,6.32
2023-11-22T10:44:22.720Z,12.32
2023-11-22T10:46:51.844Z,13.40
2023-11-22T10:49:19.327Z,9.15
2023-11-22T10:51:52.617Z,13.23
2023-11-22T10:54:21.780Z,10.65
2023-11-22T10:56:57.021Z,12.32
2023-11-22T10:59:27.722Z,17.17
2023-11-22T11:01:56.236Z,11.13
2023-11-22T11:04:36.921Z,10.95
2023-11-22T11:07:04.549Z,11.10
2023-11-22T11:09:34.031Z,12.38
2023-11-22T11:12:02.489Z,9.40
2023-11-22T11:14:31.176Z,13.98
2023-11-22T11:16:59.841Z,10.93
2023-11-22T11:30:47.043Z,10.65
2023-11-22T11:33:54.560Z,10.40
2023-11-22T11:39:49.867Z,6.88
2023-11-22T11:42:18.724Z,10.48
2023-11-22T11:45:08.480Z,10.38
2023-11-22T11:47:35.800Z,16.92
2023-11-22T11:50:03.845Z,11.32
2023-11-22T11:52:32.246Z,10.20
2023-11-22T11:55:00.003Z,6.97
2023-11-22T11:57:27.217Z,8.75
2023-11-22T11:59:55.898Z,13.32
2023-11-22T12:02:22.940Z,10.82
2023-11-22T12:04:49.777Z,8.80
2023-11-22T12:07:16.559Z,11.73
2023-11-22T12:09:43.322Z,8.98
2023-11-22T12:12:10.763Z,16.45
2023-11-22T12:14:37.466Z,9.55
2023-11-22T12:17:05.288Z,9.02
2023-11-22T12:19:32.570Z,10.48
2023-11-22T12:22:00.038Z,9.10
2023-11-22T12:24:27.151Z,12.02
2023-11-22T12:26:56.342Z,8.77
2023-11-22T12:29:24.908Z,7.40
2023-11-22T12:31:53.957Z,11.18
2023-11-22T12:34:21.239Z,8.35
2023-11-22T12:36:48.612Z,8.98
2023-11-22T12:39:18.316Z,14.48
2023-11-22T12:41:47.444Z,8.93
2023-11-22T12:44:18.356Z,10.68
2023-11-22T12:46:58.981Z,12.38
2023-11-22T12:49:29.171Z,11.57
2023-11-22T12:52:00.234Z,9.52
2023-11-22T12:54:27.264Z,9.52
2023-11-22T12:57:01.028Z,10.60
2023-11-22T12:59:31.766Z,10.05
2023-11-22T13:02:01.563Z,11.02
2023-11-22T13:04:29.594Z,13.18
2023-11-22T13:06:56.678Z,9.50
2023-11-22T13:09:23.366Z,8.27
2023-11-22T13:11:50.054Z,9.20
2023-11-22T13:14:17.604Z,10.07
2023-11-22T13:16:46.070Z,10.48
2023-11-22T13:19:15.849Z,9.40
2023-11-22T13:21:42.747Z,9.63
2023-11-22T13:24:10.410Z,10.57
2023-11-22T13:26:37.213Z,10.43
2023-11-22T13:29:03.936Z,7.82
2023-11-22T13:31:30.780Z,7.13
2023-11-22T13:33:57.557Z,9.43
2023-11-22T13:36:24.513Z,10.05
2023-11-22T13:38:51.327Z,8.50
2023-11-22T13:41:18.185Z,9.15
2023-11-22T13:43:44.856Z,9.00
2023-11-22T13:46:12.826Z,8.93
2023-11-22T13:48:40.442Z,8.32
2023-11-22T13:51:11.501Z,7.90
2023-11-22T13:53:44.058Z,10.27
2023-11-22T13:56:11.245Z,8.15
2023-11-22T13:58:38.830Z,10.27
2023-11-22T14:01:10.855Z,6.80
2023-11-22T14:03:38.051Z,10.75
2023-11-22T14:06:06.042Z,8.25
2023-11-22T14:08:33.143Z,9.70
2023-11-22T14:11:00.453Z,7.63
2023-11-22T14:13:27.233Z,10.77
2023-11-22T14:15:54.009Z,16.60
2023-11-22T14:18:20.834Z,6.25
2023-11-22T14:20:47.620Z,59.38
2023-11-22T14:23:14.410Z,14.55
2023-11-22T14:25:42.585Z,16.10
2023-11-22T14:28:10.093Z,23.65
2023-11-22T14:30:38.121Z,20.40
2023-11-22T14:33:08.963Z,27.52
2023-11-22T14:35:36.840Z,23.95
2023-11-22T14:38:05.089Z,20.33
2023-11-22T14:40:32.449Z,21.92
2023-11-22T14:42:59.357Z,21.75
2023-11-22T14:45:27.778Z,19.33
2023-11-22T14:47:54.840Z,15.05
2023-11-22T14:50:22.437Z,16.02
2023-11-22T14:52:51.100Z,10.93
2023-11-22T14:55:19.907Z,11.98
2023-11-22T14:57:46.716Z,17.88
2023-11-22T15:00:15.459Z,15.00
2023-11-22T15:02:48.024Z,12.55
2023-11-22T15:05:14.826Z,8.88
2023-11-22T15:07:43.464Z,7.78
2023-11-22T15:10:11.703Z,10.13
2023-11-22T15:12:41.209Z,10.63
2023-11-22T15:15:08.602Z,8.15
2023-11-22T15:17:35.867Z,9.85
2023-11-22T15:20:02.743Z,8.57
2023-11-22T15:22:29.474Z,15.18
2023-11-22T15:24:56.227Z,9.60
2023-11-22T15:27:22.933Z,12.63
2023-11-22T15:29:49.746Z,9.07
2023-11-22T15:32:16.574Z,12.48
2023-11-22T15:34:45.318Z,7.88
2023-11-22T15:37:12.929Z,12.52
2023-11-22T15:39:39.656Z,11.23
2023-11-22T15:42:09.296Z,11.13
2023-11-22T15:44:36.204Z,10.05
2023-11-22T15:47:06.078Z,14.55
2023-11-22T15:49:33.467Z,9.63
2023-11-22T15:52:00.250Z,9.70
2023-11-22T15:54:27.820Z,9.57
2023-11-22T15:56:54.750Z,10.10
2023-11-22T15:59:21.680Z,10.35
2023-11-22T16:01:48.525Z,10.07
2023-11-22T16:04:16.631Z,7.53
2023-11-22T16:06:43.502Z,9.73
2023-11-22T16:09:11.568Z,8.07
2023-11-22T16:11:38.553Z,9.27
2023-11-22T16:14:05.500Z,25.80
2023-11-22T16:16:32.696Z,25.15
2023-11-22T16:18:59.557Z,31.60
2023-11-22T16:21:26.312Z,14.82
2023-11-22T16:23:53.051Z,19.42
2023-11-22T16:26:20.400Z,12.15
2023-11-22T16:28:47.800Z,14.52
2023-11-22T16:31:16.391Z,13.38
2023-11-22T16:33:43.231Z,13.32
2023-11-22T16:36:10.224Z,16.83
2023-11-22T16:38:37.136Z,14.35
2023-11-22T16:41:06.542Z,14.15
2023-11-22T16:43:33.840Z,16.90
2023-11-22T16:46:00.694Z,16.55
2023-11-22T16:48:29.206Z,15.05
2023-11-22T16:50:56.056Z,15.25
2023-11-22T16:53:23.382Z,14.57
2023-11-22T16:55:50.213Z,17.88
2023-11-22T16:58:19.275Z,13.77
2023-11-22T17:00:47.585Z,11.10
2023-11-22T17:03:19.548Z,10.98
2023-11-22T17:05:54.995Z,12.70
2023-11-22T17:08:21.781Z,14.40
2023-11-22T17:10:48.844Z,13.20
2023-11-22T17:13:16.830Z,11.30
2023-11-22T17:15:45.165Z,10.90
2023-11-22T17:18:13.176Z,11.48
2023-11-22T17:20:40.068Z,9.27
2023-11-22T17:23:07.195Z,9.32
2023-11-22T17:25:33.936Z,9.60
2023-11-22T17:28:00.668Z,11.30
2023-11-22T17:30:27.502Z,10.80
2023-11-22T17:32:55.126Z,10.38
2023-11-22T17:35:22.923Z,10.48
2023-11-22T17:38:01.605Z,11.15
2023-11-22T17:40:30.014Z,11.18
2023-11-22T17:42:56.741Z,10.98
2023-11-22T17:45:23.424Z,13.85
2023-11-22T17:47:50.436Z,11.38
2023-11-22T17:50:18.799Z,12.00
2023-11-22T17:52:47.016Z,9.57
2023-11-22T17:55:14.873Z,9.57
2023-11-22T17:57:42.060Z,11.77
2023-11-22T18:00:10.580Z,11.50
2023-11-22T18:02:39.360Z,11.90
2023-11-22T18:05:07.018Z,9.90
2023-11-22T18:07:33.825Z,11.38
2023-11-22T18:10:00.587Z,11.20
2023-11-22T18:12:27.320Z,10.00
2023-11-22T18:14:54.179Z,10.95
2023-11-22T18:17:20.986Z,10.77
2023-11-22T18:19:47.674Z,21.13
2023-11-22T18:22:14.423Z,14.40
2023-11-22T18:24:41.224Z,12.93
2023-11-22T18:27:07.941Z,9.57
2023-11-22T18:29:34.764Z,8.40
2023-11-22T18:32:03.876Z,6.60
2023-11-22T18:34:34.255Z,9.95
2023-11-22T18:37:03.898Z,13.57
2023-11-22T18:39:33.338Z,9.93
2023-11-22T18:42:00.167Z,13.23
2023-11-22T18:44:26.933Z,15.43
2023-11-22T18:46:54.043Z,10.57
2023-11-22T18:49:21.156Z,9.65
2023-11-22T18:51:48.169Z,12.65
2023-11-22T18:54:15.116Z,11.50
2023-11-22T18:56:45.269Z,23.60
2023-11-22T18:59:12.366Z,12.80
2023-11-22T19:01:39.445Z,48.15
2023-11-22T19:04:07.916Z,13.68
2023-11-22T19:06:34.847Z,13.05
2023-11-22T19:09:01.611Z,11.18
2023-11-22T19:11:28.446Z,13.23
2023-11-22T19:13:55.251Z,10.90
2023-11-22T19:16:22.286Z,9.75
2023-11-22T19:18:49.279Z,9.80
2023-11-22T19:21:24.416Z,13.93
2023-11-22T19:23:52.014Z,10.60
2023-11-22T19:26:25.311Z,12.55
2023-11-22T19:28:54.907Z,13.88
2023-11-22T19:31:23.496Z,8.68
2023-11-22T19:33:50.402Z,9.70
2023-11-22T19:36:22.109Z,9.73
2023-11-22T19:38:54.649Z,10.02
2023-11-22T19:41:25.505Z,9.55
2023-11-22T19:43:52.746Z,11.32
2023-11-22T19:46:19.950Z,8.02
2023-11-22T19:48:47.000Z,9.27
2023-11-22T19:51:13.913Z,8.95
2023-11-22T19:53:42.780Z,9.07
2023-11-22T19:56:09.832Z,7.80
2023-11-22T19:58:37.147Z,13.07
2023-11-22T20:01:03.977Z,9.15
2023-11-22T20:03:30.918Z,10.07
2023-11-22T20:05:57.806Z,10.63
2023-11-22T20:08:24.594Z,9.55
2023-11-22T20:10:51.334Z,12.80
2023-11-22T20:13:18.116Z,11.88
2023-11-22T20:15:44.875Z,11.00
2023-11-22T20:18:11.764Z,15.93
2023-11-22T20:20:38.698Z,11.50
2023-11-22T20:23:06.633Z,14.50
2023-11-22T20:25:33.544Z,12.80
2023-11-22T20:28:00.291Z,14.65
2023-11-22T20:30:27.156Z,15.95
2023-11-22T20:32:54.097Z,15.52
2023-11-22T20:35:20.965Z,14.70
2023-11-22T20:37:47.695Z,13.27
2023-11-22T20:40:14.589Z,15.98
2023-11-22T20:42:41.393Z,14.23
2023-11-22T20:45:09.547Z,16.98
2023-11-22T20:47:36.736Z,12.88
2023-11-22T20:50:07.178Z,15.68
2023-11-22T20:52:34.030Z,15.50
2023-11-22T20:55:02.144Z,16.92
2023-11-22T20:57:28.892Z,18.77
2023-11-22T20:59:55.796Z,17.30
2023-11-22T21:02:23.366Z,14.15
2023-11-22T21:04:50.802Z,17.48
2023-11-22T21:07:18.603Z,17.67
2023-11-22T21:09:45.589Z,21.02
2023-11-22T21:12:12.363Z,14.82
2023-11-22T21:14:39.327Z,16.30
2023-11-22T21:17:07.267Z,17.15
2023-11-22T21:19:34.501Z,18.85
2023-11-22T21:22:01.399Z,21.35
2023-11-22T21:24:30.168Z,17.77
2023-11-22T21:26:59.688Z,21.33
2023-11-22T21:29:26.438Z,14.18
2023-11-22T21:31:55.487Z,18.63
2023-11-22T21:34:22.257Z,15.52
2023-11-22T21:36:49.034Z,18.55
2023-11-22T21:39:16.217Z,14.18
2023-11-22T21:41:47.419Z,15.15
2023-11-22T21:44:14.390Z,19.05
2023-11-22T21:46:41.177Z,16.98
2023-11-22T21:49:08.276Z,16.23
2023-11-22T21:51:35.241Z,17.25
2023-11-22T21:54:02.180Z,18.73
2023-11-22T21:56:31.852Z,19.58
2023-11-22T21:59:00.188Z,17.55
2023-11-22T22:01:27.000Z,18.42
2023-11-22T22:03:54.054Z,20.08
2023-11-22T22:06:21.297Z,16.40
2023-11-22T22:08:49.318Z,16.40
2023-11-22T22:11:16.805Z,18.85
2023-11-22T22:13:43.660Z,16.30
2023-11-22T22:16:11.057Z,15.05
2023-11-22T22:18:41.105Z,14.05
2023-11-22T22:21:08.014Z,12.43
2023-11-22T22:23:35.841Z,14.48
2023-11-22T22:26:03.010Z,15.82
2023-11-22T22:28:30.202Z,11.57
2023-11-22T22:30:57.652Z,13.38
2023-11-22T22:33:25.348Z,12.07
2023-11-22T22:35:52.329Z,14.65
2023-11-22T22:38:19.666Z,18.38
2023-11-22T22:40:46.932Z,13.18
2023-11-22T22:43:14.274Z,16.38
2023-11-22T22:45:41.172Z,12.45
2023-11-22T22:48:08.488Z,15.27
2023-11-22T22:50:35.508Z,14.60
2023-11-22T22:53:02.903Z,14.90
2023-11-22T22:55:29.616Z,12.25
2023-11-22T22:57:56.281Z,18.17
2023-11-22T23:00:35.535Z,16.38
2023-11-22T23:03:02.487Z,17.98
2023-11-22T23:05:29.586Z,12.10
2023-11-22T23:07:56.305Z,15.70
2023-11-22T23:10:23.030Z,13.65
2023-11-22T23:12:51.765Z,16.48
2023-11-22T23:15:19.603Z,12.18
2023-11-22T23:17:46.531Z,16.50
2023-11-22T23:20:14.188Z,17.15
2023-11-22T23:22:41.993Z,17.33
2023-11-22T23:25:08.998Z,14.35
2023-11-22T23:27:36.805Z,13.95
2023-11-22T23:30:12.079Z,13.32
2023-11-22T23:32:39.896Z,16.02
2023-11-22T23:35:08.672Z,12.95
2023-11-22T23:37:35.409Z,22.30
2023-11-22T23:40:10.739Z,18.77
2023-11-22T23:42:38.883Z,16.25
2023-11-22T23:45:09.270Z,19.00
2023-11-22T23:47:36.297Z,16.35
2023-11-22T23:50:04.590Z,17.35
2023-11-22T23:52:31.555Z,21.27
2023-11-22T23:54:59.018Z,16.00
2023-11-22T23:57:26.146Z,15.93
2023-11-22T23:59:52.930Z,16.38
